Time;durP1;ratioP1;P1;durP2;ratioP2;P2;SDS_P1;SDS_P2;PMS_P1;PMS_P2;Temp;Humidity;BMP_temperature;BMP_pressure;BME280_temperature;BME280_humidity;BME280_pressure;Samples;Min_cycle;Max_cycle;Signal;HPM_P1;HPM_P2
2023/09/23 00:03:58;;;;;;;;;;;;;;;11.17;100.00;95191.66;10520538;28;1859;-82
2023/09/23 00:09:04;;;;;;;;;;;;;;;11.29;100.00;95190.13;10522672;28;1966;-79
2023/09/23 00:14:07;;;;;;;;;;;;;;;11.32;100.00;95205.69;10517822;28;1921;-77
2023/09/23 00:19:09;;;;;;;;;;;;;;;11.43;100.00;95213.59;10520047;28;1883;-79
2023/09/23 00:24:13;;;;;;;;;;;;;;;11.51;100.00;95212.94;10522147;28;1880;-80
2023/09/23 00:29:17;;;;;;;;;;;;;;;11.52;100.00;95212.66;10504515;28;1889;-79
2023/09/23 00:34:20;;;;;;;;;;;;;;;11.58;100.00;95213.38;10528351;28;2604;-78
2023/09/23 00:39:26;;;;;;;;;;;;;;;11.64;100.00;95209.50;10524316;28;1849;-78
2023/09/23 00:44:28;;;;;;;;;;;;;;;11.64;100.00;95217.56;10522253;28;2296;-80
2023/09/23 00:49:32;;;;;;;;;;;;;;;11.58;100.00;95213.38;10507416;28;2223;-81
2023/09/23 00:54:35;;;;;;;;;;;;;;;11.64;100.00;95233.72;10518601;28;2039;-80
2023/09/23 00:59:37;;;;;;;;;;;;;;;11.62;100.00;95235.91;10523923;28;1915;-80
2023/09/23 01:04:40;;;;;;;;;;;;;;;11.65;100.00;95224.56;10523102;28;1978;-82
2023/09/23 01:09:44;;;;;;;;;;;;;;;11.68;100.00;95237.44;10517548;28;1968;-82
2023/09/23 01:14:47;;;;;;;;;;;;;;;11.68;100.00;95245.50;10524842;28;2010;-78
2023/09/23 01:19:51;;;;;;;;;;;;;;;11.68;100.00;95267.06;10523655;28;2546;-79
2023/09/23 01:24:56;;;;;;;;;;;;;;;11.74;100.00;95276.66;10527051;28;2005;-81
2023/09/23 01:30:03;;;;;;;;;;;;;;;11.73;100.00;95274.25;10540157;28;1985;-77
2023/09/23 01:35:07;;;;;;;;;;;;;;;11.72;100.00;95283.44;10537128;28;2097;-78
2023/09/23 01:40:09;;;;;;;;;;;;;;;11.71;100.00;95298.00;10527283;28;4696;-81
2023/09/23 01:45:13;;;;;;;;;;;;;;;11.69;100.00;95297.47;10526261;28;1974;-80
2023/09/23 01:50:18;;;;;;;;;;;;;;;11.69;100.00;95309.03;10520717;28;2231;-81
2023/09/23 01:55:20;;;;;;;;;;;;;;;11.62;100.00;95316.69;10524864;28;2044;-78
2023/09/23 02:00:25;;;;;;;;;;;;;;;11.57;100.00;95330.19;10527746;28;1925;-78
2023/09/23 02:05:28;;;;;;;;;;;;;;;11.47;100.00;95324.97;10524371;28;2557;-76
2023/09/23 02:10:30;;;;;;;;;;;;;;;11.49;100.00;95338.94;10522227;28;2456;-77
2023/09/23 02:15:33;;;;;;;;;;;;;;;11.55;100.00;95341.25;10522773;28;1974;-76
2023/09/23 02:20:35;;;;;;;;;;;;;;;11.46;100.00;95339.53;10526902;28;1889;-76
2023/09/23 02:25:38;;;;;;;;;;;;;;;11.46;100.00;95343.00;10520779;28;2016;-77
2023/09/23 02:30:41;;;;;;;;;;;;;;;11.47;100.00;95346.50;10525264;28;1939;-77
2023/09/23 02:35:43;;;;;;;;;;;;;;;11.43;100.00;95348.97;10521027;28;1995;-78
2023/09/23 02:40:47;;;;;;;;;;;;;;;11.37;100.00;95340.16;10517201;28;4473;-78
2023/09/23 02:45:50;;;;;;;;;;;;;;;11.43;100.00;95337.41;10522088;28;1978;-79
2023/09/23 02:50:53;;;;;;;;;;;;;;;11.44;100.00;95347.06;10516197;28;2482;-78
2023/09/23 02:55:56;;;;;;;;;;;;;;;11.31;100.00;95338.59;10523394;28;2269;-78
2023/09/23 03:00:58;;;;;;;;;;;;;;;11.18;100.00;95331.25;10521489;28;2280;-77
2023/09/23 03:06:02;;;;;;;;;;;;;;;11.14;100.00;95337.50;10528211;28;2022;-79
2023/09/23 03:11:09;;;;;;;;;;;;;;;11.20;100.00;95342.53;10522587;28;2039;-80
2023/09/23 03:16:14;;;;;;;;;;;;;;;11.20;100.00;95353.28;10523469;28;1977;-79
2023/09/23 03:21:17;;;;;;;;;;;;;;;11.25;100.00;95350.53;10519063;28;1954;-79
2023/09/23 03:26:19;;;;;;;;;;;;;;;11.25;100.00;95353.22;10518155;28;2378;-79
2023/09/23 03:31:22;;;;;;;;;;;;;;;11.27;100.00;95359.13;10517459;28;1978;-81
2023/09/23 03:36:25;;;;;;;;;;;;;;;11.27;100.00;95364.50;10519905;28;2538;-81
2023/09/23 03:41:28;;;;;;;;;;;;;;;11.16;100.00;95363.03;10515317;28;4560;-79
2023/09/23 03:46:30;;;;;;;;;;;;;;;11.20;100.00;95356.00;10514601;28;1980;-80
2023/09/23 03:51:33;;;;;;;;;;;;;;;11.22;100.00;95369.94;10518769;28;2030;-80
2023/09/23 03:56:36;;;;;;;;;;;;;;;11.22;100.00;95386.09;10520006;28;1993;-79
2023/09/23 04:01:39;;;;;;;;;;;;;;;11.20;100.00;95395.53;10523987;28;1927;-77
2023/09/23 04:06:42;;;;;;;;;;;;;;;11.20;100.00;95406.31;10528091;28;2070;-77
2023/09/23 04:11:46;;;;;;;;;;;;;;;11.28;100.00;95409.16;10530906;28;1988;-78
2023/09/23 04:16:48;;;;;;;;;;;;;;;11.32;100.00;95418.28;10528022;28;2016;-76
2023/09/23 04:21:51;;;;;;;;;;;;;;;11.27;100.00;95428.28;10521880;28;2222;-79
2023/09/23 04:26:53;;;;;;;;;;;;;;;11.28;100.00;95441.44;10525882;28;1954;-77
2023/09/23 04:31:56;;;;;;;;;;;;;;;11.27;100.00;95439.84;10528082;28;2009;-78
2023/09/23 04:36:58;;;;;;;;;;;;;;;11.29;100.00;95448.41;10526053;28;2287;-78
2023/09/23 04:42:03;;;;;;;;;;;;;;;11.21;100.00;95456.31;10528296;28;4551;-81
2023/09/23 04:47:07;;;;;;;;;;;;;;;11.25;100.00;95468.91;10523165;28;2854;-79
2023/09/23 04:52:10;;;;;;;;;;;;;;;11.21;100.00;95473.28;10525142;28;2075;-78
2023/09/23 04:57:13;;;;;;;;;;;;;;;11.22;100.00;95471.38;10520065;28;1965;-77
2023/09/23 05:02:17;;;;;;;;;;;;;;;11.15;100.00;95474.41;10524658;28;1977;-78
2023/09/23 05:07:20;;;;;;;;;;;;;;;11.13;100.00;95490.00;10529206;28;2014;-81
2023/09/23 05:12:22;;;;;;;;;;;;;;;11.12;100.00;95503.75;10522825;28;1929;-82
2023/09/23 05:17:28;;;;;;;;;;;;;;;11.09;100.00;95505.13;10526219;28;1947;-81
2023/09/23 05:22:31;;;;;;;;;;;;;;;11.10;100.00;95510.22;10535096;28;2025;-81
2023/09/23 05:27:34;;;;;;;;;;;;;;;11.07;100.00;95518.06;10567895;28;2007;-85
2023/09/23 05:32:37;;;;;;;;;;;;;;;11.07;100.00;95520.75;10549177;28;2839;-81
2023/09/23 05:37:40;;;;;;;;;;;;;;;11.05;100.00;95520.22;10523971;28;1947;-79
2023/09/23 05:42:42;;;;;;;;;;;;;;;11.09;100.00;95524.75;10521475;28;4532;-79
2023/09/23 05:47:45;;;;;;;;;;;;;;;11.10;100.00;95536.31;10524209;28;1931;-77
2023/09/23 05:52:48;;;;;;;;;;;;;;;11.12;100.00;95539.53;10520450;28;2023;-82
2023/09/23 05:57:51;;;;;;;;;;;;;;;11.11;100.00;95554.06;10520803;28;2075;-82
2023/09/23 06:02:53;;;;;;;;;;;;;;;11.24;100.00;95564.16;10521538;28;2045;-81
2023/09/23 06:07:55;;;;;;;;;;;;;;;11.28;100.00;95565.22;10525904;28;1907;-81
2023/09/23 06:12:58;;;;;;;;;;;;;;;11.38;100.00;95575.88;10525310;28;2008;-80
2023/09/23 06:18:00;;;;;;;;;;;;;;;11.37;100.00;95586.94;10507795;28;2839;-82
2023/09/23 06:23:03;;;;;;;;;;;;;;;11.37;100.00;95593.13;10527821;28;2366;-81
2023/09/23 06:28:06;;;;;;;;;;;;;;;11.40;100.00;95599.03;10525673;28;1973;-82
2023/09/23 06:33:08;;;;;;;;;;;;;;;11.56;100.00;95598.59;10524965;28;1957;-82
2023/09/23 06:38:10;;;;;;;;;;;;;;;11.60;100.00;95604.22;10527084;28;2008;-82
2023/09/23 06:43:13;;;;;;;;;;;;;;;11.72;100.00;95603.84;10512669;28;4585;-82
2023/09/23 06:48:15;;;;;;;;;;;;;;;11.93;100.00;95612.53;10524839;28;2079;-81
2023/09/23 06:53:18;;;;;;;;;;;;;;;12.24;100.00;95619.19;10523337;28;1938;-81
2023/09/23 06:58:20;;;;;;;;;;;;;;;12.21;100.00;95621.66;10525479;28;1983;-81
2023/09/23 07:03:23;;;;;;;;;;;;;;;12.16;100.00;95622.53;10524438;28;2988;-82
2023/09/23 07:08:26;;;;;;;;;;;;;;;12.25;100.00;95633.47;10506688;28;1942;-82
2023/09/23 07:13:30;;;;;;;;;;;;;;;12.48;100.00;95634.56;10526493;28;2067;-81
2023/09/23 07:18:33;;;;;;;;;;;;;;;12.60;100.00;95643.84;10523263;28;1977;-82
2023/09/23 07:23:38;;;;;;;;;;;;;;;12.67;100.00;95649.69;10527448;28;1958;-82
2023/09/23 07:28:41;;;;;;;;;;;;;;;12.51;100.00;95655.53;10526111;28;2029;-82
2023/09/23 07:33:43;;;;;;;;;;;;;;;12.33;100.00;95667.88;10526876;28;1922;-83
2023/09/23 07:38:46;;;;;;;;;;;;;;;12.45;100.00;95669.06;10532115;28;2066;-81
2023/09/23 07:43:49;;;;;;;;;;;;;;;12.53;100.00;95683.81;10532497;28;4576;-79
2023/09/23 07:48:51;;;;;;;;;;;;;;;12.35;100.00;95700.75;10511980;28;1976;-77
2023/09/23 07:53:54;;;;;;;;;;;;;;;12.28;100.00;95717.25;10539957;28;1973;-81
2023/09/23 07:58:56;;;;;;;;;;;;;;;12.35;100.00;95725.81;10533302;28;1914;-79
2023/09/23 08:03:59;;;;;;;;;;;;;;;12.57;100.00;95719.91;10538665;28;2398;-86
2023/09/23 08:09:01;;;;;;;;;;;;;;;12.79;100.00;95732.03;10533114;28;1982;-82
2023/09/23 08:14:03;;;;;;;;;;;;;;;12.52;100.00;95732.63;10531836;28;1986;-80
2023/09/23 08:19:06;;;;;;;;;;;;;;;12.34;100.00;95748.47;10531448;28;2198;-82
2023/09/23 08:24:09;;;;;;;;;;;;;;;12.21;100.00;95757.19;10524451;28;1922;-81
2023/09/23 08:29:11;;;;;;;;;;;;;;;12.22;100.00;95761.53;10532358;28;1937;-80
2023/09/23 08:34:14;;;;;;;;;;;;;;;12.31;100.00;95773.28;10531176;28;1961;-78
2023/09/23 08:39:16;;;;;;;;;;;;;;;12.75;100.00;95766.91;10530534;28;2005;-85
2023/09/23 08:44:19;;;;;;;;;;;;;;;12.86;100.00;95771.09;10534168;28;1964;-82
2023/09/23 08:49:22;;;;;;;;;;;;;;;13.47;100.00;95764.91;10531031;28;2647;-76
2023/09/23 08:54:25;;;;;;;;;;;;;;;13.87;100.00;95757.31;10525573;28;2002;-79
2023/09/23 08:59:28;;;;;;;;;;;;;;;14.54;100.00;95760.50;10522213;28;2105;-77
2023/09/23 09:04:30;;;;;;;;;;;;;;;14.74;100.00;95766.63;10519285;28;1952;-78
2023/09/23 09:09:32;;;;;;;;;;;;;;;14.83;100.00;95764.84;10525499;28;2008;-79
2023/09/23 09:14:35;;;;;;;;;;;;;;;15.21;100.00;95756.50;10525861;28;1914;-76
2023/09/23 09:19:39;;;;;;;;;;;;;;;15.57;100.00;95760.03;10528299;28;1991;-79
2023/09/23 09:24:41;;;;;;;;;;;;;;;15.08;100.00;95769.75;10530659;28;2349;-76
2023/09/23 09:29:44;;;;;;;;;;;;;;;15.09;100.00;95768.66;10537380;28;2106;-78
2023/09/23 09:34:49;;;;;;;;;;;;;;;15.37;100.00;95769.41;10526937;28;2387;-77
2023/09/23 09:39:52;;;;;;;;;;;;;;;15.99;100.00;95776.19;10523230;28;2037;-78
2023/09/23 09:44:55;;;;;;;;;;;;;;;14.93;100.00;95777.38;10530310;28;1974;-77
2023/09/23 09:49:57;;;;;;;;;;;;;;;15.99;100.00;95781.63;10519247;28;1977;-78
2023/09/23 09:55:00;;;;;;;;;;;;;;;15.83;100.00;95773.03;10525434;28;1878;-79
2023/09/23 10:00:07;;;;;;;;;;;;;;;15.64;100.00;95773.97;10525116;28;1948;-78
2023/09/23 10:05:10;;;;;;;;;;;;;;;15.96;100.00;95777.59;10526753;28;2003;-76
2023/09/23 10:10:13;;;;;;;;;;;;;;;15.83;100.00;95760.25;10510833;28;2109;-82
2023/09/23 10:15:15;;;;;;;;;;;;;;;16.42;100.00;95760.22;10522535;28;2246;-78
2023/09/23 10:20:18;;;;;;;;;;;;;;;15.77;100.00;95764.19;10527870;28;2550;-75
2023/09/23 10:25:21;;;;;;;;;;;;;;;15.52;100.00;95762.84;10527550;28;2052;-78
2023/09/23 10:30:23;;;;;;;;;;;;;;;16.39;100.00;95755.38;10529172;28;2068;-77
2023/09/23 10:35:26;;;;;;;;;;;;;;;16.84;100.00;95763.44;10526066;28;2006;-78
2023/09/23 10:40:29;;;;;;;;;;;;;;;16.72;100.00;95762.13;10527650;28;4577;-78
2023/09/23 10:45:32;;;;;;;;;;;;;;;16.96;100.00;95760.94;10525354;28;1981;-77
2023/09/23 10:50:34;;;;;;;;;;;;;;;17.41;100.00;95771.59;10525051;28;1885;-77
2023/09/23 10:55:38;;;;;;;;;;;;;;;16.95;100.00;95772.94;10507800;28;2150;-78
2023/09/23 11:00:41;;;;;;;;;;;;;;;17.27;100.00;95766.31;10529531;28;1999;-77
2023/09/23 11:05:44;;;;;;;;;;;;;;;17.37;100.00;95773.34;10526901;28;1870;-76
2023/09/23 11:10:46;;;;;;;;;;;;;;;17.20;100.00;95777.63;10521968;28;1919;-76
2023/09/23 11:15:49;;;;;;;;;;;;;;;17.66;100.00;95770.84;10519879;28;1974;-76
2023/09/23 11:20:52;;;;;;;;;;;;;;;17.68;100.00;95776.75;10515261;28;2977;-77
2023/09/23 11:25:54;;;;;;;;;;;;;;;17.17;100.00;95780.97;10518515;28;1910;-77
2023/09/23 11:30:57;;;;;;;;;;;;;;;16.21;100.00;95784.31;10521076;28;1973;-77
2023/09/23 11:35:59;;;;;;;;;;;;;;;17.13;100.00;95777.31;10505459;28;1996;-77
2023/09/23 11:41:04;;;;;;;;;;;;;;;17.42;100.00;95774.00;10523543;28;4513;-77
2023/09/23 11:46:07;;;;;;;;;;;;;;;17.33;100.00;95775.13;10525135;28;1981;-77
2023/09/23 11:51:10;;;;;;;;;;;;;;;17.74;100.00;95778.22;10522418;28;2165;-76
2023/09/23 11:56:12;;;;;;;;;;;;;;;17.37;100.00;95774.19;10522865;28;1962;-78
2023/09/23 12:01:19;;;;;;;;;;;;;;;17.24;100.00;95781.34;10502244;28;2041;-78
2023/09/23 12:06:22;;;;;;;;;;;;;;;17.10;100.00;95777.13;10523662;28;2411;-75
2023/09/23 12:11:26;;;;;;;;;;;;;;;17.10;100.00;95777.91;10518249;28;1852;-75
2023/09/23 12:16:29;;;;;;;;;;;;;;;16.45;100.00;95787.50;10516574;28;1913;-77
2023/09/23 12:21:31;;;;;;;;;;;;;;;16.72;100.00;95788.47;10520177;28;1902;-78
2023/09/23 12:26:35;;;;;;;;;;;;;;;16.73;100.00;95790.88;10510938;28;1832;-78
2023/09/23 12:31:38;;;;;;;;;;;;;;;17.26;100.00;95798.13;10525773;28;1894;-77
2023/09/23 12:36:40;;;;;;;;;;;;;;;16.79;100.00;95805.09;10526494;28;1938;-76
2023/09/23 12:41:43;;;;;;;;;;;;;;;17.45;100.00;95810.63;10524300;28;4493;-76
2023/09/23 12:46:46;;;;;;;;;;;;;;;17.79;100.00;95802.56;10508049;28;1889;-76
2023/09/23 12:51:48;;;;;;;;;;;;;;;17.19;100.00;95802.41;10526105;28;2488;-78
2023/09/23 12:56:50;;;;;;;;;;;;;;;17.40;100.00;95803.41;10525203;28;1976;-78
2023/09/23 13:01:53;;;;;;;;;;;;;;;17.25;100.00;95806.59;10528448;28;1890;-77
2023/09/23 13:06:55;;;;;;;;;;;;;;;17.03;100.00;95804.72;10526177;28;1901;-77
2023/09/23 13:11:58;;;;;;;;;;;;;;;17.03;100.00;95810.16;10525129;28;1847;-76
2023/09/23 13:17:00;;;;;;;;;;;;;;;16.81;100.00;95821.09;10536444;28;2257;-77
2023/09/23 13:22:04;;;;;;;;;;;;;;;17.12;100.00;95824.59;10532024;28;1971;-74
2023/09/23 13:27:07;;;;;;;;;;;;;;;17.49;100.00;95819.72;10534156;28;1865;-79
2023/09/23 13:32:09;;;;;;;;;;;;;;;17.52;100.00;95827.28;10538504;28;1895;-85
2023/09/23 13:37:12;;;;;;;;;;;;;;;17.59;100.00;95822.16;10525342;28;2589;-76
2023/09/23 13:42:15;;;;;;;;;;;;;;;17.60;100.00;95821.03;10528028;28;4580;-78
2023/09/23 13:47:18;;;;;;;;;;;;;;;17.33;100.00;95819.38;10538521;28;1900;-86
2023/09/23 13:52:20;;;;;;;;;;;;;;;16.98;100.00;95818.44;10525134;28;1866;-76
2023/09/23 13:57:23;;;;;;;;;;;;;;;17.10;100.00;95821.38;10529894;28;1980;-75
2023/09/23 14:02:25;;;;;;;;;;;;;;;17.15;100.00;95818.53;10534084;28;1873;-79
2023/09/23 14:07:28;;;;;;;;;;;;;;;17.03;100.00;95826.47;10533081;28;1813;-76
2023/09/23 14:12:30;;;;;;;;;;;;;;;16.99;100.00;95837.16;10533765;28;1884;-80
2023/09/23 14:17:33;;;;;;;;;;;;;;;16.88;100.00;95827.69;10525722;28;1978;-78
2023/09/23 14:22:36;;;;;;;;;;;;;;;16.82;100.00;95837.06;10520761;28;2578;-76
2023/09/23 14:27:38;;;;;;;;;;;;;;;16.74;100.00;95841.34;10523413;28;2043;-76
2023/09/23 14:32:41;;;;;;;;;;;;;;;16.61;100.00;95849.53;10516278;28;1847;-85
2023/09/23 14:37:45;;;;;;;;;;;;;;;16.73;100.00;95838.91;10511330;28;1960;-80
2023/09/23 14:42:47;;;;;;;;;;;;;;;16.80;100.00;95850.16;10531609;28;4576;-79
2023/09/23 14:47:50;;;;;;;;;;;;;;;16.53;100.00;95842.94;10530251;28;1728;-80
2023/09/23 14:52:52;;;;;;;;;;;;;;;16.51;100.00;95839.72;10535335;28;1923;-80
2023/09/23 14:57:55;;;;;;;;;;;;;;;16.34;100.00;95856.69;10535188;28;1896;-76
2023/09/23 15:02:58;;;;;;;;;;;;;;;16.06;100.00;95860.59;10532975;28;1835;-80
2023/09/23 15:08:01;;;;;;;;;;;;;;;16.01;100.00;95856.09;10527381;28;1893;-81
2023/09/23 15:13:03;;;;;;;;;;;;;;;15.66;100.00;95869.34;10528869;28;1880;-79
2023/09/23 15:18:06;;;;;;;;;;;;;;;15.60;100.00;95884.06;10531243;28;1906;-80
2023/09/23 15:23:10;;;;;;;;;;;;;;;15.28;100.00;95895.00;10526974;28;2825;-78
2023/09/23 15:28:13;;;;;;;;;;;;;;;14.92;100.00;95901.06;10535256;28;1795;-88
2023/09/23 15:33:16;;;;;;;;;;;;;;;15.02;100.00;95900.91;10532839;28;1894;-81
2023/09/23 15:38:19;;;;;;;;;;;;;;;14.96;100.00;95902.09;10520076;28;1969;-75
2023/09/23 15:43:22;;;;;;;;;;;;;;;14.81;100.00;95896.94;10524680;28;4528;-75
2023/09/23 15:48:24;;;;;;;;;;;;;;;14.56;100.00;95904.38;10521275;28;1985;-75
2023/09/23 15:53:27;;;;;;;;;;;;;;;14.39;100.00;95904.09;10521390;28;2098;-78
2023/09/23 15:58:30;;;;;;;;;;;;;;;14.30;100.00;95906.63;10526508;28;1985;-78
2023/09/23 16:03:33;;;;;;;;;;;;;;;14.14;100.00;95905.28;10529550;28;1879;-75
2023/09/23 16:08:35;;;;;;;;;;;;;;;14.10;100.00;95911.56;10525037;28;2104;-75
2023/09/23 16:13:38;;;;;;;;;;;;;;;13.99;100.00;95916.28;10527015;28;1959;-76
2023/09/23 16:18:42;;;;;;;;;;;;;;;14.03;100.00;95928.94;10527202;28;1932;-76
2023/09/23 16:23:45;;;;;;;;;;;;;;;14.22;100.00;95938.94;10529525;28;2702;-75
2023/09/23 16:28:48;;;;;;;;;;;;;;;14.39;100.00;95939.25;10526266;28;1912;-75
2023/09/23 16:33:51;;;;;;;;;;;;;;;14.38;100.00;95951.16;10529750;28;1970;-75
2023/09/23 16:38:53;;;;;;;;;;;;;;;14.43;100.00;95948.38;10529151;28;1958;-75
2023/09/23 16:43:56;;;;;;;;;;;;;;;14.28;100.00;95956.72;10530486;28;4427;-76
2023/09/23 16:48:59;;;;;;;;;;;;;;;14.15;100.00;95962.84;10528038;28;1955;-77
2023/09/23 16:54:02;;;;;;;;;;;;;;;14.17;100.00;95966.84;10528388;28;1904;-75
2023/09/23 16:59:05;;;;;;;;;;;;;;;14.07;100.00;95975.13;10528273;28;1988;-76
2023/09/23 17:04:07;;;;;;;;;;;;;;;13.98;100.00;95983.06;10530781;28;1863;-76
2023/09/23 17:09:10;;;;;;;;;;;;;;;13.86;100.00;96004.28;10505251;28;2683;-75
2023/09/23 17:14:13;;;;;;;;;;;;;;;13.76;100.00;96018.72;10511313;28;1896;-77
2023/09/23 17:19:15;;;;;;;;;;;;;;;13.80;100.00;96021.63;10527257;28;1914;-74
2023/09/23 17:24:18;;;;;;;;;;;;;;;13.72;100.00;96033.09;10523111;28;1845;-75
2023/09/23 17:29:20;;;;;;;;;;;;;;;13.72;100.00;96043.91;10524962;28;1968;-75
2023/09/23 17:34:23;;;;;;;;;;;;;;;13.65;100.00;96056.94;10524739;28;1847;-76
2023/09/23 17:39:26;;;;;;;;;;;;;;;13.65;100.00;96056.94;10530248;28;1965;-74
2023/09/23 17:44:29;;;;;;;;;;;;;;;13.58;100.00;96061.88;10525460;28;1827;-76
2023/09/23 17:49:31;;;;;;;;;;;;;;;13.45;100.00;96061.44;10529345;28;1879;-75
2023/09/23 17:54:34;;;;;;;;;;;;;;;13.32;100.00;96075.63;10530542;28;2778;-76
2023/09/23 17:59:37;;;;;;;;;;;;;;;13.23;100.00;96088.09;10528001;28;1910;-77
2023/09/23 18:04:39;;;;;;;;;;;;;;;13.01;100.00;96091.22;10506753;28;2183;-75
2023/09/23 18:09:42;;;;;;;;;;;;;;;12.84;100.00;96102.38;10524451;28;1964;-75
2023/09/23 18:14:45;;;;;;;;;;;;;;;12.82;100.00;96112.66;10524527;28;2114;-75
2023/09/23 18:19:47;;;;;;;;;;;;;;;12.76;100.00;96116.47;10505105;28;2038;-75
2023/09/23 18:24:50;;;;;;;;;;;;;;;12.71;100.00;96124.56;10523916;28;1811;-77
2023/09/23 18:29:53;;;;;;;;;;;;;;;12.58;100.00;96126.00;10525653;28;1816;-76
2023/09/23 18:34:55;;;;;;;;;;;;;;;12.48;100.00;96130.66;10525431;28;1864;-79
2023/09/23 18:39:58;;;;;;;;;;;;;;;12.36;100.00;96133.66;10522931;28;4589;-76
2023/09/23 18:45:01;;;;;;;;;;;;;;;12.30;100.00;96146.34;10522793;28;2017;-77
2023/09/23 18:50:03;;;;;;;;;;;;;;;12.35;100.00;96153.63;10520804;28;1848;-78
2023/09/23 18:55:06;;;;;;;;;;;;;;;12.38;100.00;96170.03;10522346;28;1966;-75
2023/09/23 19:00:10;;;;;;;;;;;;;;;12.44;100.00;96162.72;10520051;28;1945;-77
2023/09/23 19:05:12;;;;;;;;;;;;;;;12.51;100.00;96165.94;10515551;28;1913;-78
2023/09/23 19:10:17;;;;;;;;;;;;;;;12.55;100.00;96167.00;10519457;28;1937;-78
2023/09/23 19:15:22;;;;;;;;;;;;;;;12.57;100.00;96178.31;10523203;28;2176;-77
2023/09/23 19:20:24;;;;;;;;;;;;;;;12.67;100.00;96182.88;10520310;28;2160;-77
2023/09/23 19:25:27;;;;;;;;;;;;;;;12.73;100.00;96192.56;10517073;28;2948;-75
2023/09/23 19:30:30;;;;;;;;;;;;;;;12.74;100.00;96191.47;10520545;28;1880;-76
2023/09/23 19:35:33;;;;;;;;;;;;;;;12.64;100.00;96188.81;10519755;28;2517;-77
2023/09/23 19:40:35;;;;;;;;;;;;;;;12.63;100.00;96192.59;10518744;28;4663;-78
2023/09/23 19:45:38;;;;;;;;;;;;;;;12.62;100.00;96196.38;10522506;28;1965;-77
2023/09/23 19:50:42;;;;;;;;;;;;;;;12.51;100.00;96206.38;10504915;28;1881;-76
2023/09/23 19:55:45;;;;;;;;;;;;;;;12.32;100.00;96208.88;10522395;28;1874;-76
2023/09/23 20:00:49;;;;;;;;;;;;;;;12.25;100.00;96215.63;10519544;28;1910;-76
2023/09/23 20:05:52;;;;;;;;;;;;;;;12.06;100.00;96221.59;10524360;28;1885;-76
2023/09/23 20:10:55;;;;;;;;;;;;;;;11.90;100.00;96228.91;10521370;28;2934;-76
2023/09/23 20:15:57;;;;;;;;;;;;;;;11.76;100.00;96238.53;10523448;28;1974;-73
2023/09/23 20:21:00;;;;;;;;;;;;;;;11.65;100.00;96236.94;10521259;28;2123;-74
2023/09/23 20:26:03;;;;;;;;;;;;;;;11.59;100.00;96244.22;10521675;28;2036;-76
2023/09/23 20:31:05;;;;;;;;;;;;;;;11.59;100.00;96238.03;10518597;28;1984;-77
2023/09/23 20:36:08;;;;;;;;;;;;;;;11.58;100.00;96241.78;10520427;28;1829;-75
2023/09/23 20:41:11;;;;;;;;;;;;;;;11.56;100.00;96255.50;10521464;28;4647;-76
2023/09/23 20:46:13;;;;;;;;;;;;;;;11.63;100.00;96260.63;10509680;28;1930;-76
2023/09/23 20:51:16;;;;;;;;;;;;;;;11.70;100.00;96277.31;10528334;28;1887;-74
2023/09/23 20:56:19;;;;;;;;;;;;;;;11.78;100.00;96276.81;10525284;28;2920;-77
2023/09/23 21:01:21;;;;;;;;;;;;;;;11.87;100.00;96277.09;10524744;28;2169;-77
2023/09/23 21:06:24;;;;;;;;;;;;;;;11.89;100.00;96275.75;10521811;28;2186;-77
2023/09/23 21:11:28;;;;;;;;;;;;;;;11.98;100.00;96277.91;10531019;28;1925;-75
2023/09/23 21:16:30;;;;;;;;;;;;;;;11.97;100.00;96287.09;10529223;28;1892;-74
2023/09/23 21:21:33;;;;;;;;;;;;;;;12.01;100.00;96288.94;10526230;28;1910;-77
2023/09/23 21:26:36;;;;;;;;;;;;;;;12.07;100.00;96284.38;10523864;28;1895;-75
2023/09/23 21:31:38;;;;;;;;;;;;;;;12.07;100.00;96287.88;10525930;28;1880;-75
2023/09/23 21:36:42;;;;;;;;;;;;;;;12.10;100.00;96291.94;10525719;28;1886;-76
2023/09/23 21:41:45;;;;;;;;;;;;;;;12.03;100.00;96296.78;10518883;28;4437;-77
2023/09/23 21:46:47;;;;;;;;;;;;;;;12.04;100.00;96293.00;10528673;28;1883;-78
2023/09/23 21:51:50;;;;;;;;;;;;;;;12.02;100.00;96295.16;10527139;28;1719;-79
2023/09/23 21:56:53;;;;;;;;;;;;;;;11.96;100.00;96296.22;10529018;28;2533;-81
2023/09/23 22:01:56;;;;;;;;;;;;;;;11.97;100.00;96301.38;10521828;28;1936;-80
2023/09/23 22:06:59;;;;;;;;;;;;;;;11.92;100.00;96311.31;10508971;28;1862;-80
2023/09/23 22:12:02;;;;;;;;;;;;;;;11.97;100.00;96314.03;10525410;28;2006;-81
2023/09/23 22:17:06;;;;;;;;;;;;;;;11.99;100.00;96311.88;10524170;28;2282;-80
2023/09/23 22:22:15;;;;;;;;;;;;;;;12.01;100.00;96304.31;10523396;28;2035;-81
2023/09/23 22:27:20;;;;;;;;;;;;;;;12.01;100.00;96307.00;10521144;28;1955;-81
2023/09/23 22:32:23;;;;;;;;;;;;;;;12.04;100.00;96311.88;10525591;28;1829;-81
2023/09/23 22:37:26;;;;;;;;;;;;;;;12.04;100.00;96309.97;10509351;28;1840;-81
2023/09/23 22:42:30;;;;;;;;;;;;;;;12.08;100.00;96311.03;10522401;28;4584;-81
2023/09/23 22:47:34;;;;;;;;;;;;;;;12.09;100.00;96304.59;10527761;28;1866;-81
2023/09/23 22:52:41;;;;;;;;;;;;;;;12.09;100.00;96317.25;10519392;28;1895;-81
2023/09/23 22:57:58;;;;;;;;;;;;;;;12.09;100.00;96312.69;10520511;28;1855;-81
2023/09/23 23:25:18;;;;;;;;;;;;;;;12.04;100.00;96314.56;10519795;28;1848;-81
2023/09/23 23:31:07;;;;;;;;;;;;;;;12.07;100.00;96314.00;10518455;28;2844;-81
2023/09/23 23:41:50;;;;;;;;;;;;;;;11.95;100.00;96316.16;10516641;28;1960;-80
2023/09/23 23:47:01;;;;;;;;;;;;;;;12.00;100.00;96318.88;10522803;28;1903;-80
2023/09/23 23:52:36;;;;;;;;;;;;;;;11.95;100.00;96308.06;10523461;28;1774;-80
2023/09/23 23:58:01;;;;;;;;;;;;;;;11.98;100.00;96316.44;10517171;28;1980;-82
